sensor_id;sensor_type;location;lat;lon;timestamp;P1;durP1;ratioP1;P2;durP2;ratioP2
4057;SDS011;2044;48.692;9.020;2023-07-29T17:08:23;3.20;;;2.90;;
4057;SDS011;2044;48.692;9.020;2023-07-29T17:10:50;2.27;;;2.00;;
4057;SDS011;2044;48.692;9.020;2023-07-29T17:13:17;1.73;;;1.53;;
4057;SDS011;2044;48.692;9.020;2023-07-29T17:15:44;3.90;;;1.90;;
4057;SDS011;2044;48.692;9.020;2023-07-29T17:18:12;5.70;;;2.70;;
4057;SDS011;2044;48.692;9.020;2023-07-29T17:20:39;3.37;;;1.90;;
4057;SDS011;2044;48.692;9.020;2023-07-29T17:23:07;3.63;;;2.37;;
4057;SDS011;2044;48.692;9.020;2023-07-29T17:25:35;5.40;;;2.50;;
4057;SDS011;2044;48.692;9.020;2023-07-29T17:28:03;2.90;;;2.60;;
4057;SDS011;2044;48.692;9.020;2023-07-29T17:30:32;4.30;;;2.60;;
4057;SDS011;2044;48.692;9.020;2023-07-29T17:33:01;2.53;;;2.10;;
4057;SDS011;2044;48.692;9.020;2023-07-29T17:35:28;3.43;;;2.13;;
4057;SDS011;2044;48.692;9.020;2023-07-29T17:37:55;2.73;;;2.23;;
4057;SDS011;2044;48.692;9.020;2023-07-29T17:40:22;4.10;;;2.10;;
4057;SDS011;2044;48.692;9.020;2023-07-29T17:42:50;3.90;;;2.70;;
4057;SDS011;2044;48.692;9.020;2023-07-29T17:45:17;4.53;;;2.40;;
4057;SDS011;2044;48.692;9.020;2023-07-29T17:47:44;3.00;;;2.30;;
4057;SDS011;2044;48.692;9.020;2023-07-29T17:50:11;4.13;;;2.40;;
4057;SDS011;2044;48.692;9.020;2023-07-29T17:52:38;2.77;;;2.37;;
4057;SDS011;2044;48.692;9.020;2023-07-29T17:55:05;3.03;;;2.50;;
4057;SDS011;2044;48.692;9.020;2023-07-29T17:57:33;4.23;;;2.60;;
4057;SDS011;2044;48.692;9.020;2023-07-29T18:00:01;4.17;;;2.40;;
4057;SDS011;2044;48.692;9.020;2023-07-29T18:02:30;3.40;;;2.20;;
4057;SDS011;2044;48.692;9.020;2023-07-29T18:04:58;5.10;;;2.20;;
4057;SDS011;2044;48.692;9.020;2023-07-29T18:07:25;2.70;;;1.93;;
4057;SDS011;2044;48.692;9.020;2023-07-29T18:09:53;2.80;;;2.40;;
4057;SDS011;2044;48.692;9.020;2023-07-29T18:12:20;2.23;;;2.03;;
4057;SDS011;2044;48.692;9.020;2023-07-29T18:14:47;3.13;;;2.30;;
4057;SDS011;2044;48.692;9.020;2023-07-29T18:17:15;3.70;;;2.70;;
4057;SDS011;2044;48.692;9.020;2023-07-29T18:19:42;3.10;;;1.90;;
4057;SDS011;2044;48.692;9.020;2023-07-29T18:22:09;3.80;;;2.23;;
4057;SDS011;2044;48.692;9.020;2023-07-29T18:24:36;6.17;;;2.40;;
4057;SDS011;2044;48.692;9.020;2023-07-29T18:27:04;4.30;;;2.80;;
4057;SDS011;2044;48.692;9.020;2023-07-29T18:29:32;5.33;;;3.03;;
4057;SDS011;2044;48.692;9.020;2023-07-29T18:31:59;3.07;;;2.77;;
4057;SDS011;2044;48.692;9.020;2023-07-29T18:34:28;4.10;;;2.80;;
4057;SDS011;2044;48.692;9.020;2023-07-29T18:36:55;2.97;;;2.70;;
4057;SDS011;2044;48.692;9.020;2023-07-29T18:39:21;4.03;;;2.33;;
4057;SDS011;2044;48.692;9.020;2023-07-29T18:41:48;3.60;;;2.60;;
4057;SDS011;2044;48.692;9.020;2023-07-29T18:44:15;4.30;;;2.77;;
4057;SDS011;2044;48.692;9.020;2023-07-29T18:46:42;3.40;;;2.90;;
4057;SDS011;2044;48.692;9.020;2023-07-29T18:49:09;3.40;;;2.80;;
4057;SDS011;2044;48.692;9.020;2023-07-29T18:51:38;3.60;;;2.70;;
4057;SDS011;2044;48.692;9.020;2023-07-29T18:54:05;5.10;;;3.30;;
4057;SDS011;2044;48.692;9.020;2023-07-29T18:56:32;4.17;;;2.60;;
4057;SDS011;2044;48.692;9.020;2023-07-29T18:58:59;3.63;;;3.10;;
4057;SDS011;2044;48.692;9.020;2023-07-29T19:01:26;5.47;;;3.30;;
4057;SDS011;2044;48.692;9.020;2023-07-29T19:03:52;3.90;;;2.93;;
4057;SDS011;2044;48.692;9.020;2023-07-29T19:06:20;4.93;;;3.50;;
4057;SDS011;2044;48.692;9.020;2023-07-29T19:08:48;4.00;;;3.10;;
4057;SDS011;2044;48.692;9.020;2023-07-29T19:11:15;4.90;;;3.10;;
4057;SDS011;2044;48.692;9.020;2023-07-29T19:13:42;6.00;;;3.90;;
4057;SDS011;2044;48.692;9.020;2023-07-29T19:16:09;3.90;;;3.40;;
4057;SDS011;2044;48.692;9.020;2023-07-29T19:18:37;4.67;;;3.07;;
4057;SDS011;2044;48.692;9.020;2023-07-29T19:21:04;4.10;;;3.43;;
4057;SDS011;2044;48.692;9.020;2023-07-29T19:23:32;4.80;;;3.67;;
4057;SDS011;2044;48.692;9.020;2023-07-29T19:26:01;3.57;;;3.27;;
4057;SDS011;2044;48.692;9.020;2023-07-29T19:28:28;3.73;;;3.20;;
4057;SDS011;2044;48.692;9.020;2023-07-29T19:30:55;4.47;;;2.97;;
4057;SDS011;2044;48.692;9.020;2023-07-29T19:33:22;3.87;;;3.10;;
4057;SDS011;2044;48.692;9.020;2023-07-29T19:35:52;4.30;;;3.50;;
4057;SDS011;2044;48.692;9.020;2023-07-29T19:38:20;4.57;;;2.90;;
4057;SDS011;2044;48.692;9.020;2023-07-29T19:40:47;7.80;;;2.73;;
4057;SDS011;2044;48.692;9.020;2023-07-29T19:43:16;5.37;;;4.03;;
4057;SDS011;2044;48.692;9.020;2023-07-29T19:45:46;3.57;;;3.20;;
4057;SDS011;2044;48.692;9.020;2023-07-29T19:48:13;4.20;;;3.10;;
4057;SDS011;2044;48.692;9.020;2023-07-29T19:50:40;4.93;;;3.03;;
4057;SDS011;2044;48.692;9.020;2023-07-29T19:53:07;5.37;;;3.70;;
4057;SDS011;2044;48.692;9.020;2023-07-29T19:55:35;5.33;;;3.60;;
4057;SDS011;2044;48.692;9.020;2023-07-29T19:58:01;6.70;;;3.67;;
4057;SDS011;2044;48.692;9.020;2023-07-29T20:00:30;5.40;;;3.73;;
4057;SDS011;2044;48.692;9.020;2023-07-29T20:02:57;4.80;;;3.57;;
4057;SDS011;2044;48.692;9.020;2023-07-29T20:05:26;5.43;;;3.50;;
4057;SDS011;2044;48.692;9.020;2023-07-29T20:07:53;4.97;;;3.53;;
4057;SDS011;2044;48.692;9.020;2023-07-29T20:10:20;4.30;;;3.77;;
4057;SDS011;2044;48.692;9.020;2023-07-29T20:12:47;6.17;;;4.40;;
4057;SDS011;2044;48.692;9.020;2023-07-29T20:15:15;3.97;;;3.47;;
4057;SDS011;2044;48.692;9.020;2023-07-29T20:17:43;3.60;;;3.20;;
4057;SDS011;2044;48.692;9.020;2023-07-29T20:20:10;7.60;;;3.60;;
4057;SDS011;2044;48.692;9.020;2023-07-29T20:22:38;3.50;;;3.13;;
4057;SDS011;2044;48.692;9.020;2023-07-29T20:25:05;5.03;;;3.77;;
4057;SDS011;2044;48.692;9.020;2023-07-29T20:27:33;4.70;;;3.67;;
4057;SDS011;2044;48.692;9.020;2023-07-29T20:30:00;5.60;;;3.60;;
4057;SDS011;2044;48.692;9.020;2023-07-29T20:32:27;3.80;;;3.30;;
4057;SDS011;2044;48.692;9.020;2023-07-29T20:34:56;5.70;;;3.77;;
4057;SDS011;2044;48.692;9.020;2023-07-29T20:37:23;6.90;;;3.87;;
4057;SDS011;2044;48.692;9.020;2023-07-29T20:39:50;4.27;;;3.50;;
4057;SDS011;2044;48.692;9.020;2023-07-29T20:42:17;4.20;;;3.17;;
4057;SDS011;2044;48.692;9.020;2023-07-29T20:44:44;5.23;;;4.13;;
4057;SDS011;2044;48.692;9.020;2023-07-29T20:47:11;5.13;;;4.13;;
4057;SDS011;2044;48.692;9.020;2023-07-29T20:49:38;5.63;;;3.40;;
4057;SDS011;2044;48.692;9.020;2023-07-29T20:52:07;4.57;;;3.70;;
4057;SDS011;2044;48.692;9.020;2023-07-29T20:54:34;4.97;;;3.73;;
4057;SDS011;2044;48.692;9.020;2023-07-29T20:57:01;5.67;;;3.80;;
4057;SDS011;2044;48.692;9.020;2023-07-29T20:59:28;5.23;;;3.77;;
4057;SDS011;2044;48.692;9.020;2023-07-29T21:01:55;5.47;;;3.73;;
4057;SDS011;2044;48.692;9.020;2023-07-29T21:04:22;4.63;;;3.47;;
4057;SDS011;2044;48.692;9.020;2023-07-29T21:06:49;4.47;;;3.30;;
4057;SDS011;2044;48.692;9.020;2023-07-29T21:09:18;5.00;;;4.03;;
4057;SDS011;2044;48.692;9.020;2023-07-29T21:11:45;4.13;;;3.53;;
4057;SDS011;2044;48.692;9.020;2023-07-29T21:14:12;4.83;;;3.60;;
4057;SDS011;2044;48.692;9.020;2023-07-29T21:16:39;7.13;;;4.47;;
4057;SDS011;2044;48.692;9.020;2023-07-29T21:19:06;4.50;;;3.73;;
4057;SDS011;2044;48.692;9.020;2023-07-29T21:21:33;5.33;;;3.73;;
4057;SDS011;2044;48.692;9.020;2023-07-29T21:24:00;4.97;;;4.20;;
4057;SDS011;2044;48.692;9.020;2023-07-29T21:26:28;5.03;;;3.10;;
4057;SDS011;2044;48.692;9.020;2023-07-29T21:28:55;8.63;;;4.10;;
4057;SDS011;2044;48.692;9.020;2023-07-29T21:31:22;4.60;;;3.63;;
4057;SDS011;2044;48.692;9.020;2023-07-29T21:33:49;5.50;;;3.80;;
4057;SDS011;2044;48.692;9.020;2023-07-29T21:36:16;6.67;;;3.90;;
4057;SDS011;2044;48.692;9.020;2023-07-29T21:38:43;4.93;;;4.33;;
4057;SDS011;2044;48.692;9.020;2023-07-29T21:41:10;4.80;;;4.00;;
4057;SDS011;2044;48.692;9.020;2023-07-29T21:43:39;5.00;;;4.03;;
4057;SDS011;2044;48.692;9.020;2023-07-29T21:46:06;5.77;;;4.30;;
4057;SDS011;2044;48.692;9.020;2023-07-29T21:48:33;6.17;;;4.43;;
4057;SDS011;2044;48.692;9.020;2023-07-29T21:51:00;4.13;;;3.30;;
4057;SDS011;2044;48.692;9.020;2023-07-29T21:53:27;6.03;;;3.67;;
4057;SDS011;2044;48.692;9.020;2023-07-29T21:55:54;4.53;;;4.00;;
4057;SDS011;2044;48.692;9.020;2023-07-29T21:58:21;5.50;;;4.80;;
4057;SDS011;2044;48.692;9.020;2023-07-29T22:00:51;5.10;;;3.87;;
4057;SDS011;2044;48.692;9.020;2023-07-29T22:03:18;4.03;;;3.63;;
4057;SDS011;2044;48.692;9.020;2023-07-29T22:05:45;6.00;;;3.93;;
4057;SDS011;2044;48.692;9.020;2023-07-29T22:08:12;6.03;;;3.57;;
4057;SDS011;2044;48.692;9.020;2023-07-29T22:10:41;3.80;;;3.40;;
4057;SDS011;2044;48.692;9.020;2023-07-29T22:13:07;5.60;;;3.57;;
4057;SDS011;2044;48.692;9.020;2023-07-29T22:15:34;5.30;;;3.63;;
4057;SDS011;2044;48.692;9.020;2023-07-29T22:18:03;4.97;;;3.67;;
4057;SDS011;2044;48.692;9.020;2023-07-29T22:20:30;6.40;;;3.30;;
4057;SDS011;2044;48.692;9.020;2023-07-29T22:22:57;5.03;;;4.13;;
4057;SDS011;2044;48.692;9.020;2023-07-29T22:25:24;5.20;;;3.67;;
4057;SDS011;2044;48.692;9.020;2023-07-29T22:27:50;5.90;;;4.00;;
4057;SDS011;2044;48.692;9.020;2023-07-29T22:30:17;5.13;;;3.67;;
4057;SDS011;2044;48.692;9.020;2023-07-29T22:32:44;4.23;;;3.83;;
4057;SDS011;2044;48.692;9.020;2023-07-29T22:35:12;4.90;;;3.83;;
4057;SDS011;2044;48.692;9.020;2023-07-29T22:37:39;4.50;;;3.90;;
4057;SDS011;2044;48.692;9.020;2023-07-29T22:40:06;4.70;;;3.43;;
4057;SDS011;2044;48.692;9.020;2023-07-29T22:42:34;4.87;;;3.80;;
4057;SDS011;2044;48.692;9.020;2023-07-29T22:45:00;4.87;;;3.77;;
4057;SDS011;2044;48.692;9.020;2023-07-29T22:47:27;6.73;;;3.77;;
4057;SDS011;2044;48.692;9.020;2023-07-29T22:49:54;6.90;;;3.97;;
4057;SDS011;2044;48.692;9.020;2023-07-29T23:05:59;8.00;;;3.73;;
4057;SDS011;2044;48.692;9.020;2023-07-29T23:08:26;6.97;;;4.53;;
4057;SDS011;2044;48.692;9.020;2023-07-29T23:11:17;6.30;;;3.93;;
4057;SDS011;2044;48.692;9.020;2023-07-29T23:14:38;8.47;;;4.77;;
4057;SDS011;2044;48.692;9.020;2023-07-29T23:17:28;7.63;;;4.93;;
4057;SDS011;2044;48.692;9.020;2023-07-29T23:21:07;5.80;;;4.60;;
4057;SDS011;2044;48.692;9.020;2023-07-29T23:23:34;5.67;;;4.80;;
4057;SDS011;2044;48.692;9.020;2023-07-29T23:26:01;4.87;;;4.10;;
4057;SDS011;2044;48.692;9.020;2023-07-29T23:28:28;5.47;;;4.17;;
4057;SDS011;2044;48.692;9.020;2023-07-29T23:30:55;6.37;;;4.27;;
4057;SDS011;2044;48.692;9.020;2023-07-29T23:33:22;6.90;;;5.20;;
4057;SDS011;2044;48.692;9.020;2023-07-29T23:35:49;10.90;;;5.27;;
4057;SDS011;2044;48.692;9.020;2023-07-29T23:38:17;7.13;;;4.47;;
4057;SDS011;2044;48.692;9.020;2023-07-29T23:40:46;6.00;;;4.73;;
4057;SDS011;2044;48.692;9.020;2023-07-29T23:43:13;6.97;;;5.60;;
4057;SDS011;2044;48.692;9.020;2023-07-29T23:45:40;5.43;;;4.67;;
4057;SDS011;2044;48.692;9.020;2023-07-29T23:48:07;8.70;;;4.83;;
4057;SDS011;2044;48.692;9.020;2023-07-29T23:50:34;9.63;;;4.90;;
4057;SDS011;2044;48.692;9.020;2023-07-29T23:53:03;7.73;;;4.90;;
4057;SDS011;2044;48.692;9.020;2023-07-29T23:55:31;8.57;;;5.60;;
4057;SDS011;2044;48.692;9.020;2023-07-29T23:57:57;9.17;;;5.73;;
